Aurora, CO (80010)

8:42 AM MST on February 12, 2016 (GMT -0700)
stapleton bluff lake | | Change Station
CLOSE
Current Station
Personal Weather Station
Location: Denver, CO
Elevation: 5348 ft
Nearby Weather Stations

Elev 5348 ft 39.76 °N, 104.86 °W | Updated 8 minutes ago

Partly Cloudy
Partly Cloudy
47.7 °F
Feels Like 48 °F
N
0.0
Wind Variable Wind from NNW
Gusts 4.0 mph

Today
High -- | Low -- °F
--% Chance of Precip.
Yesterday
High -- | Low -- °F
Precip. -- in
Pressure 30.30 in
Visibility 10.0 miles
Clouds Scattered Clouds 11000 ft
Mostly Cloudy 22000 ft
Windchill 48 °F
Dew Point 29 °F
Humidity 48%
Rainfall 0.00 in
Snow Depth Not available.
6:56 AM 5:31 PM
Waxing Crescent, 21% visible
METAR KBKF 121458Z 34002KT 10SM SCT110 BKN220 02/M04 A3030 RMK AO2A SLP261 T00151040 52013
Pressure 30.30 in
Visibility 10.0 miles
Clouds Scattered Clouds 11000 ft
Mostly Cloudy 22000 ft
Windchill 48 °F
Dew Point 29 °F
Humidity 48%
Rainfall 0.00 in
Snow Depth Not available.
6:56 AM 5:31 PM
Waxing Crescent, 21% visible
METAR KBKF 121458Z 34002KT 10SM SCT110 BKN220 02/M04 A3030 RMK AO2A SLP261 T00151040 52013

10-Day Weather Forecast

Almanac

Astronomy

Feb. 12, 2016 Rise Set
Actual Time
Civil Twilight
Nautical Twilight
Astronomical Twilight
Moon
Length of Visible Light
Length of Day
Tomorrow will be .
, % of the Moon is Illuminated

Today's Extremes

State Highs State Lows

Community

WunderPhotos

Upload Photos

1,892,335 photos uploaded!

WunderBlog® & News

Nearby

Air Quality

  Air Quality AQ Index Pollutant
Not available.

Snow Depth

Station Depth Elevation

Earthquake Activity

City Distance Mag. Time & Date
Minimum magnitude displayed is 2.5.

Coastal Water Temperatures

Place Temperature

Stations

Nearby Weather Stations

Station Location Temp. Windchill Dew Point Humidity Wind Precip. Elev Updated Type
                   

Watches & Warnings

There are currently no watches in effect.